createdAt,value
2018-04-30T00:02:02.634Z,81.43
2018-04-30T00:04:28.410Z,81.51
2018-04-30T00:06:54.189Z,81.19
2018-04-30T00:09:19.971Z,81.42
2018-04-30T00:11:46.034Z,81.79
2018-04-30T00:14:11.831Z,81.31
2018-04-30T00:16:37.618Z,81.58
2018-04-30T00:19:03.689Z,81.40
2018-04-30T00:21:29.486Z,81.55
2018-04-30T00:23:55.264Z,81.38
2018-04-30T00:26:21.261Z,81.40
2018-04-30T00:28:47.041Z,81.66
2018-04-30T00:31:12.809Z,82.09
2018-04-30T00:33:38.712Z,81.43
2018-04-30T00:36:04.483Z,81.64
2018-04-30T00:38:30.262Z,82.01
2018-04-30T00:40:56.058Z,81.91
2018-04-30T00:43:21.849Z,81.57
2018-04-30T00:45:47.613Z,81.09
2018-04-30T00:48:13.434Z,81.55
2018-04-30T00:50:39.244Z,82.06
2018-04-30T00:53:05.050Z,81.97
2018-04-30T00:55:30.844Z,81.65
2018-04-30T00:57:56.636Z,82.17
2018-04-30T01:00:22.569Z,82.13
2018-04-30T01:02:48.357Z,82.35
2018-04-30T01:05:14.156Z,82.05
2018-04-30T01:07:40.181Z,82.23
2018-04-30T01:10:05.997Z,82.07
2018-04-30T01:12:31.797Z,81.93
2018-04-30T01:14:57.611Z,81.61
2018-04-30T01:17:23.405Z,82.15
2018-04-30T01:19:49.185Z,82.26
2018-04-30T01:22:14.971Z,81.98
2018-04-30T01:24:42.177Z,81.83
2018-04-30T01:27:08.796Z,82.04
2018-04-30T01:29:34.598Z,82.03
2018-04-30T01:32:00.390Z,81.58
2018-04-30T01:34:26.882Z,81.39
2018-04-30T01:36:52.679Z,82.01
2018-04-30T01:39:18.469Z,81.83
2018-04-30T01:41:44.251Z,81.43
2018-04-30T01:44:10.070Z,81.16
2018-04-30T01:46:35.882Z,81.58
2018-04-30T01:49:01.714Z,81.64
2018-04-30T01:51:27.521Z,81.72
2018-04-30T01:53:53.315Z,81.41
2018-04-30T01:56:19.114Z,81.47
2018-04-30T01:58:44.915Z,81.77
2018-04-30T02:01:10.709Z,82.21
2018-04-30T02:03:36.499Z,81.88
2018-04-30T02:06:02.316Z,81.77
2018-04-30T02:08:28.096Z,81.80
2018-04-30T02:10:53.875Z,81.76
2018-04-30T02:13:19.781Z,81.38
2018-04-30T02:15:45.570Z,81.82
2018-04-30T02:18:11.401Z,81.88
2018-04-30T02:20:37.198Z,82.02
2018-04-30T02:23:02.987Z,82.10
2018-04-30T02:25:28.794Z,81.85
2018-04-30T02:27:54.566Z,81.97
2018-04-30T02:30:20.364Z,82.15
2018-04-30T02:32:46.467Z,82.60
2018-04-30T02:35:12.255Z,81.83
2018-04-30T02:37:38.857Z,82.33
2018-04-30T02:40:04.693Z,81.98
2018-04-30T02:42:30.479Z,82.27
2018-04-30T02:44:56.265Z,81.97
2018-04-30T02:47:22.078Z,82.33
2018-04-30T02:49:47.854Z,82.51
2018-04-30T02:52:13.646Z,82.42
2018-04-30T02:54:39.473Z,81.87
2018-04-30T02:57:05.275Z,82.70
2018-04-30T02:59:31.071Z,81.86
2018-04-30T03:01:56.875Z,82.02
2018-04-30T03:04:22.667Z,82.27
2018-04-30T03:06:48.467Z,82.28
2018-04-30T03:09:14.283Z,82.37
2018-04-30T03:11:40.091Z,82.02
2018-04-30T03:14:06.000Z,81.49
2018-04-30T03:16:31.789Z,81.92
2018-04-30T03:18:57.590Z,82.28
2018-04-30T03:21:23.401Z,82.18
2018-04-30T03:23:49.178Z,82.38
2018-04-30T03:26:14.965Z,82.60
2018-04-30T03:28:40.755Z,82.57
2018-04-30T03:31:06.550Z,82.87
2018-04-30T03:33:32.352Z,82.83
2018-04-30T03:35:58.150Z,83.47
2018-04-30T03:38:23.929Z,83.66
2018-04-30T03:40:49.704Z,83.44
2018-04-30T03:43:15.496Z,83.53
2018-04-30T03:45:41.304Z,83.34
2018-04-30T03:48:07.094Z,83.06
2018-04-30T03:50:32.878Z,83.26
2018-04-30T03:52:58.689Z,83.25
2018-04-30T03:55:24.462Z,83.09
2018-04-30T03:57:50.246Z,83.03
2018-04-30T04:00:28.567Z,83.21
2018-04-30T04:03:07.427Z,83.37
2018-04-30T04:05:45.615Z,83.63
2018-04-30T04:08:12.166Z,83.08
2018-04-30T04:10:38.010Z,83.52
2018-04-30T04:13:04.600Z,83.07
2018-04-30T04:15:30.723Z,83.43
2018-04-30T04:17:56.574Z,82.91
2018-04-30T04:20:22.355Z,82.46
2018-04-30T04:22:48.158Z,82.60
2018-04-30T04:25:13.950Z,82.64
2018-04-30T04:27:40.032Z,82.57
2018-04-30T04:30:05.794Z,82.03
2018-04-30T04:32:31.586Z,82.46
2018-04-30T04:34:57.373Z,81.98
2018-04-30T04:37:23.234Z,82.36
2018-04-30T04:39:49.033Z,82.59
2018-04-30T04:42:15.107Z,81.85
2018-04-30T04:44:40.909Z,82.22
2018-04-30T04:47:06.720Z,82.21
2018-04-30T04:49:32.510Z,82.16
2018-04-30T04:51:58.283Z,81.98
2018-04-30T04:54:24.116Z,81.83
2018-04-30T04:56:49.906Z,82.07
2018-04-30T04:59:15.689Z,82.28
2018-04-30T05:01:41.477Z,82.71
2018-04-30T05:04:07.367Z,82.40
2018-04-30T05:06:33.161Z,82.26
2018-04-30T05:08:58.924Z,82.40
2018-04-30T05:11:24.749Z,82.42
2018-04-30T05:13:50.546Z,82.54
2018-04-30T05:16:16.347Z,82.66
2018-04-30T05:18:42.399Z,82.59
2018-04-30T05:21:08.197Z,82.50
2018-04-30T05:23:33.997Z,82.55
2018-04-30T05:25:59.818Z,82.25
2018-04-30T05:28:25.615Z,82.42
2018-04-30T05:30:51.406Z,82.69
2018-04-30T05:33:17.240Z,82.27
2018-04-30T05:35:43.035Z,81.94
2018-04-30T05:38:08.858Z,82.13
2018-04-30T05:40:34.676Z,81.80
2018-04-30T05:43:00.468Z,81.53
2018-04-30T05:45:26.266Z,81.43
2018-04-30T05:47:52.052Z,81.25
2018-04-30T05:50:17.842Z,81.01
2018-04-30T05:52:43.622Z,80.98
2018-04-30T05:55:09.453Z,81.26
2018-04-30T05:57:35.255Z,80.91
2018-04-30T06:00:01.061Z,78.96
2018-04-30T06:02:26.985Z,79.15
2018-04-30T06:04:52.995Z,79.65
2018-04-30T06:07:18.802Z,79.69
2018-04-30T06:09:44.632Z,80.01
2018-04-30T06:12:10.489Z,79.88
2018-04-30T06:14:36.226Z,79.73
2018-04-30T06:17:02.055Z,79.87
2018-04-30T06:19:27.862Z,80.26
2018-04-30T06:21:53.644Z,79.84
2018-04-30T06:24:19.497Z,77.87
2018-04-30T06:26:45.329Z,77.87
2018-04-30T06:29:11.072Z,77.58
2018-04-30T06:31:36.917Z,78.08
2018-04-30T06:34:02.698Z,78.21
2018-04-30T06:36:28.487Z,78.75
2018-04-30T06:38:54.281Z,79.63
2018-04-30T06:41:20.111Z,82.74
2018-04-30T06:43:45.904Z,82.92
2018-04-30T06:46:11.707Z,81.53
2018-04-30T06:48:37.501Z,83.28
2018-04-30T06:51:03.293Z,84.15
2018-04-30T06:53:29.194Z,84.05
2018-04-30T06:55:54.882Z,83.71
2018-04-30T06:58:20.686Z,82.22
2018-04-30T07:00:46.508Z,83.01
2018-04-30T07:03:12.314Z,83.31
2018-04-30T07:05:38.117Z,82.77
2018-04-30T07:08:03.906Z,80.78
2018-04-30T07:10:29.707Z,82.16
2018-04-30T07:12:55.481Z,82.97
2018-04-30T07:15:21.294Z,83.08
2018-04-30T07:17:47.085Z,83.16
2018-04-30T07:20:12.899Z,81.50
2018-04-30T07:22:38.688Z,79.97
2018-04-30T07:25:04.506Z,79.61
2018-04-30T07:27:30.317Z,78.32
2018-04-30T07:29:56.110Z,77.36
2018-04-30T07:32:21.911Z,77.74
2018-04-30T07:34:47.722Z,77.95
2018-04-30T07:37:13.509Z,77.71
2018-04-30T07:39:39.293Z,78.04
2018-04-30T07:42:05.110Z,77.60
2018-04-30T07:44:30.940Z,77.43
2018-04-30T07:46:56.744Z,77.35
2018-04-30T07:49:22.570Z,76.51
2018-04-30T07:51:48.383Z,76.33
2018-04-30T07:54:14.170Z,76.17
2018-04-30T07:56:39.965Z,75.68
2018-04-30T07:59:05.769Z,75.47
2018-04-30T08:01:31.562Z,75.14
2018-04-30T08:03:57.386Z,75.12
2018-04-30T08:06:23.201Z,74.31
2018-04-30T08:08:49.017Z,74.86
2018-04-30T08:11:14.825Z,74.96
2018-04-30T08:13:40.616Z,75.57
2018-04-30T08:16:06.420Z,76.44
2018-04-30T08:18:32.240Z,76.12
2018-04-30T08:20:58.024Z,76.26
2018-04-30T08:23:23.824Z,75.58
2018-04-30T08:25:49.643Z,75.71
2018-04-30T08:28:15.429Z,76.37
2018-04-30T08:30:41.234Z,76.02
2018-04-30T08:33:07.057Z,76.12
2018-04-30T08:35:32.841Z,75.24
2018-04-30T08:37:58.734Z,75.82
2018-04-30T08:40:24.545Z,75.99
2018-04-30T08:42:50.342Z,74.85
2018-04-30T08:45:16.133Z,74.97
2018-04-30T08:47:41.952Z,75.20
2018-04-30T08:50:07.753Z,74.34
2018-04-30T08:52:33.545Z,75.48
2018-04-30T08:54:59.354Z,75.75
2018-04-30T08:57:25.150Z,75.17
2018-04-30T08:59:50.942Z,75.21
2018-04-30T09:02:16.728Z,74.72
2018-04-30T09:04:42.535Z,75.78
2018-04-30T09:07:08.340Z,75.63
2018-04-30T09:09:34.175Z,75.15
2018-04-30T09:11:59.971Z,75.52
2018-04-30T09:14:25.753Z,75.47
2018-04-30T09:16:51.555Z,75.57
2018-04-30T09:19:17.359Z,75.22
2018-04-30T09:21:43.510Z,74.52
2018-04-30T09:24:09.302Z,75.93
2018-04-30T09:26:35.104Z,75.95
2018-04-30T09:29:00.913Z,76.15
2018-04-30T09:31:26.686Z,75.72
2018-04-30T09:33:52.482Z,75.71
2018-04-30T09:36:18.276Z,75.47
2018-04-30T09:38:44.065Z,75.60
2018-04-30T09:41:09.853Z,75.52
2018-04-30T09:43:35.650Z,75.94
2018-04-30T09:46:01.537Z,75.43
2018-04-30T09:48:27.347Z,74.87
2018-04-30T09:50:53.125Z,75.58
2018-04-30T09:53:19.023Z,76.32
2018-04-30T09:55:44.838Z,76.39
2018-04-30T09:58:10.633Z,76.43
2018-04-30T10:00:36.447Z,76.94
2018-04-30T10:03:02.274Z,77.33
2018-04-30T10:05:28.062Z,76.45
2018-04-30T10:07:53.856Z,76.61
2018-04-30T10:10:19.664Z,76.23
2018-04-30T10:12:45.472Z,76.54
2018-04-30T10:15:11.441Z,76.50
2018-04-30T10:17:37.278Z,76.30
2018-04-30T10:20:03.073Z,76.57
2018-04-30T10:22:28.901Z,76.43
2018-04-30T10:24:54.691Z,76.22
2018-04-30T10:27:20.479Z,75.90
2018-04-30T10:29:46.274Z,75.87
2018-04-30T10:32:12.104Z,75.81
2018-04-30T10:34:37.901Z,75.33
2018-04-30T10:37:03.698Z,74.83
2018-04-30T10:39:29.625Z,74.98
2018-04-30T10:41:55.443Z,74.50
2018-04-30T10:44:21.235Z,74.25
2018-04-30T10:46:47.053Z,75.05
2018-04-30T10:49:12.848Z,75.59
2018-04-30T10:51:38.641Z,76.37
2018-04-30T10:54:04.469Z,77.25
2018-04-30T10:56:30.259Z,77.67
2018-04-30T10:58:56.049Z,76.60
2018-04-30T11:01:21.854Z,76.90
2018-04-30T11:03:47.625Z,76.04
2018-04-30T11:06:13.429Z,76.57
2018-04-30T11:08:39.217Z,76.41
2018-04-30T11:11:05.008Z,76.19
2018-04-30T11:13:30.819Z,76.37
2018-04-30T11:15:56.609Z,76.04
2018-04-30T11:18:22.467Z,76.01
2018-04-30T11:20:48.254Z,75.11
2018-04-30T11:23:14.042Z,75.24
2018-04-30T11:25:39.862Z,74.94
2018-04-30T11:28:05.673Z,74.65
2018-04-30T11:30:31.479Z,74.29
2018-04-30T11:32:57.262Z,74.04
2018-04-30T11:35:23.078Z,73.51
2018-04-30T11:37:48.879Z,73.47
2018-04-30T11:40:14.670Z,73.94
2018-04-30T11:42:40.468Z,74.36
2018-04-30T11:45:06.269Z,73.98
2018-04-30T11:47:32.070Z,74.66
2018-04-30T11:49:57.878Z,75.01
2018-04-30T11:52:23.701Z,75.88
2018-04-30T11:54:49.495Z,76.14
2018-04-30T11:57:15.290Z,76.64
2018-04-30T11:59:41.159Z,77.97
2018-04-30T12:02:06.982Z,78.40
2018-04-30T12:04:32.785Z,78.33
2018-04-30T12:06:58.717Z,79.79
2018-04-30T12:09:24.524Z,81.37
2018-04-30T12:11:50.317Z,81.09
2018-04-30T12:14:16.205Z,81.27
2018-04-30T12:16:42.042Z,81.38
2018-04-30T12:19:08.494Z,81.80
2018-04-30T12:21:34.312Z,82.52
2018-04-30T12:24:00.114Z,82.61
2018-04-30T12:26:25.922Z,81.60
2018-04-30T12:28:51.958Z,82.47
2018-04-30T12:31:17.768Z,81.49
2018-04-30T12:33:43.570Z,81.86
2018-04-30T12:36:09.423Z,82.00
2018-04-30T12:38:35.459Z,84.13
2018-04-30T12:41:01.283Z,84.19
2018-04-30T12:43:27.241Z,86.02
2018-04-30T12:45:53.061Z,85.95
2018-04-30T12:48:18.863Z,86.29
2018-04-30T12:50:44.764Z,86.71
2018-04-30T12:53:10.534Z,87.90
2018-04-30T12:55:36.697Z,87.88
2018-04-30T12:58:02.518Z,89.23
2018-04-30T13:00:28.376Z,90.43
2018-04-30T13:02:54.203Z,90.30
2018-04-30T13:05:20.000Z,90.75
2018-04-30T13:07:45.787Z,93.03
2018-04-30T13:10:11.618Z,92.86
2018-04-30T13:12:38.359Z,92.48
2018-04-30T13:15:04.166Z,92.78
2018-04-30T13:17:30.023Z,92.83
2018-04-30T13:19:55.799Z,92.81
2018-04-30T13:22:21.735Z,91.61
2018-04-30T13:24:47.559Z,92.72
2018-04-30T13:27:13.355Z,92.21
2018-04-30T13:29:39.149Z,91.01
2018-04-30T13:32:04.951Z,92.64
2018-04-30T13:34:31.113Z,92.79
2018-04-30T13:36:56.922Z,92.23
2018-04-30T13:39:22.981Z,92.88
2018-04-30T13:41:48.773Z,92.47
2018-04-30T13:44:14.934Z,93.84
2018-04-30T13:46:40.856Z,94.12
2018-04-30T13:49:06.654Z,94.25
2018-04-30T13:51:32.438Z,94.42
2018-04-30T13:53:58.249Z,93.76
2018-04-30T13:56:24.158Z,93.86
2018-04-30T13:58:49.955Z,92.91
2018-04-30T14:01:15.943Z,93.63
2018-04-30T14:03:41.808Z,94.22
2018-04-30T14:06:07.613Z,93.78
2018-04-30T14:08:33.414Z,92.60
2018-04-30T14:10:59.209Z,92.84
2018-04-30T14:13:25.991Z,93.00
2018-04-30T14:15:51.830Z,90.99
2018-04-30T14:18:17.646Z,90.81
2018-04-30T14:20:43.499Z,90.56
2018-04-30T14:23:09.494Z,88.61
2018-04-30T14:25:35.277Z,86.58
2018-04-30T14:28:01.230Z,83.89
2018-04-30T14:30:27.095Z,84.78
2018-04-30T14:32:52.888Z,85.19
2018-04-30T14:35:18.746Z,82.98
2018-04-30T14:37:44.836Z,81.34
2018-04-30T14:40:10.789Z,78.64
2018-04-30T14:42:36.585Z,78.64
2018-04-30T14:45:02.622Z,77.37
2018-04-30T14:47:28.422Z,78.37
2018-04-30T14:49:54.240Z,78.39
2018-04-30T14:52:20.053Z,77.67
2018-04-30T14:54:45.845Z,77.03
2018-04-30T14:57:12.078Z,70.42
2018-04-30T14:59:37.873Z,68.16
2018-04-30T15:02:03.986Z,64.78
2018-04-30T15:04:29.788Z,63.88
2018-04-30T15:06:55.762Z,64.56
2018-04-30T15:09:21.575Z,64.76
2018-04-30T15:11:47.624Z,64.79
2018-04-30T15:14:13.420Z,63.09
2018-04-30T15:16:39.207Z,63.02
2018-04-30T15:19:05.182Z,60.75
2018-04-30T15:21:31.070Z,62.07
2018-04-30T15:23:56.909Z,62.11
2018-04-30T15:26:22.698Z,62.02
2018-04-30T15:28:48.499Z,62.24
2018-04-30T15:31:14.549Z,61.12
2018-04-30T15:33:40.531Z,60.76
2018-04-30T15:36:06.330Z,60.74
2018-04-30T15:38:33.092Z,60.96
2018-04-30T15:40:58.896Z,61.11
2018-04-30T15:43:24.695Z,60.37
2018-04-30T15:45:50.514Z,61.06
2018-04-30T15:48:16.298Z,60.83
2018-04-30T15:50:42.088Z,61.20
2018-04-30T15:53:07.898Z,61.82
2018-04-30T15:55:33.691Z,61.06
2018-04-30T15:57:59.542Z,60.71
2018-04-30T16:00:25.303Z,58.60
2018-04-30T16:02:51.101Z,59.39
2018-04-30T16:05:16.910Z,57.58
2018-04-30T16:07:42.773Z,57.46
2018-04-30T16:10:08.643Z,58.11
2018-04-30T16:12:34.441Z,57.88
2018-04-30T16:15:00.422Z,58.56
2018-04-30T16:17:26.245Z,58.69
2018-04-30T16:19:52.037Z,58.46
2018-04-30T16:22:17.872Z,58.28
2018-04-30T16:24:43.649Z,59.00
2018-04-30T16:27:09.576Z,57.90
2018-04-30T16:29:35.367Z,54.53
2018-04-30T16:32:01.186Z,54.62
2018-04-30T16:34:27.171Z,53.61
2018-04-30T16:36:52.971Z,53.91
2018-04-30T16:39:18.786Z,54.22
2018-04-30T16:41:44.602Z,55.25
2018-04-30T16:44:10.503Z,54.63
2018-04-30T16:46:36.677Z,54.34
2018-04-30T16:49:02.473Z,54.90
2018-04-30T16:51:28.265Z,53.97
2018-04-30T16:53:54.089Z,54.35
2018-04-30T16:56:19.881Z,54.10
2018-04-30T16:58:45.665Z,53.67
2018-04-30T17:01:11.450Z,53.61
2018-04-30T17:03:37.275Z,53.58
2018-04-30T17:06:03.109Z,53.87
2018-04-30T17:08:28.894Z,53.94
2018-04-30T17:10:54.681Z,53.42
2018-04-30T17:13:20.498Z,53.76
2018-04-30T17:15:46.300Z,53.86
2018-04-30T17:18:12.078Z,53.46
2018-04-30T17:20:37.898Z,53.36
2018-04-30T17:23:03.699Z,52.80
2018-04-30T17:25:29.486Z,53.24
2018-04-30T17:27:55.285Z,54.00
2018-04-30T17:30:21.129Z,54.74
2018-04-30T17:32:46.908Z,53.49
2018-04-30T17:35:12.705Z,54.22
2018-04-30T17:37:38.576Z,54.01
2018-04-30T17:40:04.381Z,53.99
2018-04-30T17:42:31.075Z,54.43
2018-04-30T17:45:03.902Z,54.47
2018-04-30T17:47:29.703Z,55.11
2018-04-30T17:49:55.500Z,54.47
2018-04-30T17:52:21.292Z,54.54
2018-04-30T17:54:47.081Z,54.52
2018-04-30T17:57:12.898Z,54.98
2018-04-30T17:59:38.841Z,55.65
2018-04-30T18:02:04.636Z,54.99
2018-04-30T18:04:30.536Z,55.09
2018-04-30T18:06:56.387Z,54.88
2018-04-30T18:09:22.311Z,55.23
2018-04-30T18:11:48.093Z,55.15
2018-04-30T18:14:13.886Z,55.19
2018-04-30T18:16:39.867Z,55.37
2018-04-30T18:19:05.845Z,55.74
2018-04-30T18:21:31.646Z,56.02
2018-04-30T18:23:57.549Z,55.69
2018-04-30T18:26:23.382Z,55.99
2018-04-30T18:28:49.155Z,56.16
2018-04-30T18:31:15.155Z,56.14
2018-04-30T18:33:40.994Z,56.14
2018-04-30T18:36:06.782Z,56.82
2018-04-30T18:38:32.581Z,56.68
2018-04-30T18:40:58.357Z,57.32
2018-04-30T18:43:24.163Z,57.39
2018-04-30T18:45:49.957Z,57.74
2018-04-30T18:48:15.866Z,57.45
2018-04-30T18:50:42.598Z,57.45
2018-04-30T18:53:08.486Z,56.64
2018-04-30T18:55:34.281Z,57.49
2018-04-30T18:58:00.076Z,56.80
2018-04-30T19:00:25.880Z,57.58
2018-04-30T19:02:51.761Z,57.01
2018-04-30T19:05:17.693Z,57.36
2018-04-30T19:07:43.495Z,58.01
2018-04-30T19:10:09.289Z,58.30
2018-04-30T19:12:35.104Z,58.33
2018-04-30T19:15:00.923Z,58.62
2018-04-30T19:17:26.730Z,58.74
2018-04-30T19:19:52.807Z,58.81
2018-04-30T19:22:19.452Z,59.26
2018-04-30T19:24:45.270Z,58.97
2018-04-30T19:27:11.165Z,59.60
2018-04-30T19:29:36.979Z,59.69
2018-04-30T19:32:02.770Z,60.16
2018-04-30T19:34:28.576Z,60.40
2018-04-30T19:36:54.355Z,60.69
2018-04-30T19:39:20.163Z,60.53
2018-04-30T19:41:45.967Z,61.17
2018-04-30T19:44:11.984Z,61.21
2018-04-30T19:46:37.772Z,60.28
2018-04-30T19:49:03.594Z,61.39
2018-04-30T19:51:29.470Z,61.75
2018-04-30T19:53:55.514Z,61.93
2018-04-30T19:56:21.258Z,61.82
2018-04-30T19:58:47.098Z,62.59
2018-04-30T20:01:12.951Z,62.29
2018-04-30T20:03:38.873Z,62.96
2018-04-30T20:06:04.718Z,62.97
2018-04-30T20:08:30.686Z,63.75
2018-04-30T20:10:56.765Z,63.39
2018-04-30T20:13:22.545Z,63.70
2018-04-30T20:15:48.587Z,64.57
2018-04-30T20:18:14.473Z,64.25
2018-04-30T20:20:40.298Z,64.07
2018-04-30T20:23:06.097Z,64.48
2018-04-30T20:25:31.958Z,64.50
2018-04-30T20:27:57.907Z,64.62
2018-04-30T20:30:23.701Z,65.02
2018-04-30T20:32:49.502Z,65.13
2018-04-30T20:35:15.313Z,65.58
2018-04-30T20:37:41.961Z,65.57
2018-04-30T20:40:14.743Z,65.75
2018-04-30T20:42:40.602Z,65.93
2018-04-30T20:45:06.405Z,66.19
2018-04-30T20:47:32.209Z,66.04
2018-04-30T20:49:58.109Z,66.41
2018-04-30T20:52:23.910Z,66.80
2018-04-30T20:54:49.755Z,66.74
2018-04-30T20:57:15.612Z,66.83
2018-04-30T20:59:41.378Z,66.82
2018-04-30T21:02:07.199Z,66.55
2018-04-30T21:04:32.979Z,66.69
2018-04-30T21:06:58.898Z,66.45
2018-04-30T21:09:24.711Z,66.75
2018-04-30T21:11:50.510Z,66.89
2018-04-30T21:14:16.299Z,66.94
2018-04-30T21:16:42.107Z,66.99
2018-04-30T21:19:07.946Z,67.88
2018-04-30T21:21:33.766Z,68.51
2018-04-30T21:24:00.602Z,68.36
2018-04-30T21:26:26.486Z,68.91
2018-04-30T21:28:52.301Z,69.26
2018-04-30T21:31:21.394Z,69.84
2018-04-30T21:33:47.224Z,70.25
2018-04-30T21:36:13.239Z,70.64
2018-04-30T21:38:39.102Z,71.80
2018-04-30T21:41:04.907Z,73.02
2018-04-30T21:43:30.718Z,73.05
2018-04-30T21:45:57.419Z,73.63
2018-04-30T21:48:23.318Z,73.81
2018-04-30T21:50:49.529Z,73.93
2018-04-30T21:53:15.331Z,73.54
2018-04-30T21:55:41.269Z,73.40
2018-04-30T21:58:07.102Z,73.43
2018-04-30T22:00:32.948Z,73.06
2018-04-30T22:02:59.182Z,72.37
2018-04-30T22:05:24.997Z,71.15
2018-04-30T22:07:51.821Z,68.91
2018-04-30T22:10:18.445Z,67.81
2018-04-30T22:12:44.249Z,66.21
2018-04-30T22:15:10.498Z,66.13
2018-04-30T22:17:36.318Z,64.64
2018-04-30T22:20:02.903Z,64.36
2018-04-30T22:22:28.774Z,64.04
2018-04-30T22:24:54.825Z,63.92
2018-04-30T22:27:20.642Z,65.97
2018-04-30T22:29:47.356Z,66.73
2018-04-30T22:32:13.235Z,63.55
2018-04-30T22:34:39.030Z,62.64
2018-04-30T22:37:04.810Z,63.90
2018-04-30T22:39:30.603Z,63.01
2018-04-30T22:41:56.404Z,63.50
2018-04-30T22:44:22.411Z,63.50
2018-04-30T22:46:48.258Z,63.31
2018-04-30T22:49:14.062Z,63.03
2018-04-30T22:51:39.877Z,63.88
2018-04-30T22:54:05.692Z,62.76
2018-04-30T22:56:31.477Z,63.37
2018-04-30T22:58:57.596Z,63.55
2018-04-30T23:01:23.413Z,64.27
2018-04-30T23:03:49.196Z,62.83
2018-04-30T23:06:15.002Z,65.68
2018-04-30T23:08:40.786Z,63.11
2018-04-30T23:11:06.580Z,63.83
2018-04-30T23:13:32.395Z,65.01
2018-04-30T23:15:58.181Z,65.92
2018-04-30T23:18:23.990Z,66.64
2018-04-30T23:20:49.876Z,67.02
2018-04-30T23:23:15.627Z,67.63
2018-04-30T23:25:41.411Z,68.13
2018-04-30T23:28:07.214Z,68.12
2018-04-30T23:30:32.998Z,68.87
2018-04-30T23:32:58.841Z,69.38
2018-04-30T23:35:24.621Z,69.17
2018-04-30T23:37:50.405Z,68.51
2018-04-30T23:40:16.194Z,67.91
2018-04-30T23:42:41.979Z,67.45
2018-04-30T23:45:07.781Z,67.52
2018-04-30T23:47:33.580Z,67.03
2018-04-30T23:49:59.374Z,66.54
2018-04-30T23:52:25.187Z,65.36
2018-04-30T23:54:50.984Z,65.62
2018-04-30T23:57:16.762Z,63.49
2018-04-30T23:59:42.554Z,62.05
